createdAt,value
2017-08-25T00:01:26.790Z,99606.23
2017-08-25T00:03:53.224Z,99611.14
2017-08-25T00:06:19.656Z,99613.56
2017-08-25T00:08:46.095Z,99612.91
2017-08-25T00:11:12.529Z,99608.95
2017-08-25T00:13:38.969Z,99612.89
2017-08-25T00:16:05.502Z,99601.19
2017-08-25T00:18:31.935Z,99609.79
2017-08-25T00:20:58.373Z,99603.17
2017-08-25T00:23:24.808Z,99609.73
2017-08-25T00:25:51.342Z,99606.45
2017-08-25T00:28:17.778Z,99605.27
2017-08-25T00:30:44.213Z,99566.09
2017-08-25T00:33:10.687Z,99604.87
2017-08-25T00:35:37.205Z,99598.98
2017-08-25T00:38:03.620Z,99602.24
2017-08-25T00:40:30.040Z,99608.86
2017-08-25T00:42:56.492Z,99607.09
2017-08-25T00:45:22.979Z,99607.45
2017-08-25T00:47:49.360Z,99608.07
2017-08-25T00:50:15.795Z,99608.86
2017-08-25T00:52:42.186Z,99612.47
2017-08-25T00:55:08.625Z,99606.26
2017-08-25T00:57:35.097Z,99613.82
2017-08-25T01:00:01.535Z,99614.83
2017-08-25T01:02:27.969Z,99611.87
2017-08-25T01:04:54.506Z,99609.34
2017-08-25T01:07:20.896Z,99605.19
2017-08-25T01:09:47.378Z,99618.55
2017-08-25T01:12:13.855Z,99603.78
2017-08-25T01:14:40.350Z,99607.20
2017-08-25T01:17:06.784Z,99598.89
2017-08-25T01:19:33.421Z,99608.31
2017-08-25T01:21:59.860Z,99608.67
2017-08-25T01:24:26.377Z,99603.03
2017-08-25T01:26:52.819Z,99606.06
2017-08-25T01:29:19.220Z,99606.55
2017-08-25T01:31:45.587Z,99602.81
2017-08-25T01:34:12.033Z,99609.20
2017-08-25T01:36:38.470Z,99612.66
2017-08-25T01:39:04.906Z,99609.77
2017-08-25T01:41:31.339Z,99613.13
2017-08-25T01:43:57.695Z,99615.96
2017-08-25T01:46:24.184Z,99615.73
2017-08-25T01:48:50.648Z,99618.01
2017-08-25T01:51:17.076Z,99611.42
2017-08-25T01:53:43.468Z,99615.83
2017-08-25T01:56:09.949Z,99611.51
2017-08-25T01:58:36.384Z,99617.95
2017-08-25T02:01:02.773Z,99619.20
2017-08-25T02:03:29.200Z,99618.78
2017-08-25T02:05:55.686Z,99623.05
2017-08-25T02:08:22.120Z,99628.04
2017-08-25T02:10:48.518Z,99629.54
2017-08-25T02:13:14.950Z,99627.39
2017-08-25T02:15:41.375Z,99636.63
2017-08-25T02:18:07.810Z,99635.97
2017-08-25T02:20:34.290Z,99634.52
2017-08-25T02:23:00.685Z,99636.00
2017-08-25T02:25:27.198Z,99632.50
2017-08-25T02:27:53.666Z,99637.02
2017-08-25T02:30:20.137Z,99611.17
2017-08-25T02:32:46.573Z,99635.28
2017-08-25T02:35:13.109Z,99641.22
2017-08-25T02:37:39.546Z,99643.03
2017-08-25T02:40:05.996Z,99641.66
2017-08-25T02:42:32.483Z,99635.40
2017-08-25T02:44:58.928Z,99638.31
2017-08-25T02:47:25.370Z,99612.52
2017-08-25T02:49:51.772Z,99634.91
2017-08-25T02:52:18.298Z,99634.91
2017-08-25T02:54:44.792Z,99640.33
2017-08-25T02:57:11.179Z,99637.58
2017-08-25T02:59:37.663Z,99659.03
2017-08-25T03:02:04.220Z,99642.77
2017-08-25T03:04:30.718Z,99641.53
2017-08-25T03:06:57.160Z,99651.46
2017-08-25T03:09:23.606Z,99645.77
2017-08-25T03:11:50.044Z,99649.16
2017-08-25T03:14:16.478Z,99630.13
2017-08-25T03:16:42.914Z,99650.69
2017-08-25T03:19:09.346Z,99649.03
2017-08-25T03:21:35.780Z,99658.95
2017-08-25T03:24:02.174Z,99658.34
2017-08-25T03:26:28.654Z,99661.83
2017-08-25T03:28:55.067Z,99661.59
2017-08-25T03:31:21.522Z,99659.30
2017-08-25T03:33:47.957Z,99659.30
2017-08-25T03:36:14.495Z,99660.84
2017-08-25T03:38:40.930Z,99660.47
2017-08-25T03:41:07.327Z,99662.97
2017-08-25T03:43:33.798Z,99663.58
2017-08-25T03:46:00.335Z,99662.17
2017-08-25T03:48:26.769Z,99654.07
2017-08-25T03:50:53.157Z,99660.25
2017-08-25T03:53:19.639Z,99660.66
2017-08-25T03:55:46.132Z,99666.76
2017-08-25T03:58:12.580Z,99663.58
2017-08-25T04:00:39.015Z,99666.25
2017-08-25T04:03:05.481Z,99668.52
2017-08-25T04:05:32.015Z,99666.60
2017-08-25T04:07:58.456Z,99673.99
2017-08-25T04:10:24.890Z,99673.14
2017-08-25T04:12:51.325Z,99679.30
2017-08-25T04:15:17.847Z,99669.79
2017-08-25T04:17:44.297Z,99668.08
2017-08-25T04:20:10.735Z,99680.15
2017-08-25T04:22:37.165Z,99689.19
2017-08-25T04:25:03.632Z,99692.70
2017-08-25T04:27:30.163Z,99687.30
2017-08-25T04:29:56.574Z,99686.98
2017-08-25T04:32:22.960Z,99692.06
2017-08-25T04:34:49.441Z,99698.14
2017-08-25T04:37:15.879Z,99700.39
2017-08-25T04:39:42.474Z,99705.18
2017-08-25T04:42:08.848Z,99698.06
2017-08-25T04:44:35.348Z,99707.36
2017-08-25T04:47:01.772Z,99705.77
2017-08-25T04:49:28.256Z,99704.72
2017-08-25T04:51:54.690Z,99708.45
2017-08-25T04:54:21.124Z,99712.55
2017-08-25T04:56:47.560Z,99708.62
2017-08-25T04:59:13.999Z,99709.14
2017-08-25T05:01:40.532Z,99707.98
2017-08-25T05:04:06.968Z,99705.92
2017-08-25T05:06:33.403Z,99715.53
2017-08-25T05:08:59.834Z,99705.69
2017-08-25T05:11:26.295Z,99712.16
2017-08-25T05:13:52.809Z,99695.83
2017-08-25T05:16:19.346Z,99698.58
2017-08-25T05:18:45.883Z,99699.72
2017-08-25T05:21:12.294Z,99696.78
2017-08-25T05:23:38.737Z,99697.11
2017-08-25T05:26:05.293Z,99689.26
2017-08-25T05:28:31.729Z,99685.01
2017-08-25T05:30:58.162Z,99691.57
2017-08-25T05:33:24.697Z,99687.82
2017-08-25T05:35:51.543Z,99687.77
2017-08-25T05:38:18.164Z,99690.47
2017-08-25T05:40:44.828Z,99690.52
2017-08-25T05:43:11.578Z,99689.70
2017-08-25T05:45:38.056Z,99685.01
2017-08-25T05:48:04.636Z,99682.48
2017-08-25T05:50:31.279Z,99685.09
2017-08-25T05:52:57.817Z,99685.57
2017-08-25T05:55:24.363Z,99683.52
2017-08-25T05:57:50.789Z,99687.05
2017-08-25T06:00:17.315Z,99678.18
2017-08-25T06:02:43.693Z,99676.27
2017-08-25T06:05:10.161Z,99683.95
2017-08-25T06:07:36.629Z,99684.73
2017-08-25T06:10:03.377Z,99696.80
2017-08-25T06:12:29.913Z,99690.63
2017-08-25T06:14:56.553Z,99687.86
2017-08-25T06:17:23.999Z,99685.90
2017-08-25T06:19:50.469Z,99686.89
2017-08-25T06:22:16.948Z,99688.55
2017-08-25T06:24:43.623Z,99692.42
2017-08-25T06:27:10.160Z,99693.33
2017-08-25T06:29:36.543Z,99706.06
2017-08-25T06:32:03.257Z,99705.97
2017-08-25T06:34:29.875Z,99706.77
2017-08-25T06:36:56.512Z,99706.29
2017-08-25T06:39:22.999Z,99716.99
2017-08-25T06:41:49.483Z,99712.45
2017-08-25T06:44:15.972Z,99716.26
2017-08-25T06:46:42.520Z,99701.75
2017-08-25T06:49:08.957Z,99720.36
2017-08-25T06:51:35.632Z,99719.90
2017-08-25T06:54:02.174Z,99729.16
2017-08-25T06:56:28.709Z,99721.66
2017-08-25T06:58:55.142Z,99724.65
2017-08-25T07:01:21.577Z,99719.36
2017-08-25T07:03:48.012Z,99725.77
2017-08-25T07:06:14.513Z,99718.20
2017-08-25T07:08:40.936Z,99718.83
2017-08-25T07:11:07.419Z,99723.16
2017-08-25T07:13:34.128Z,99725.11
2017-08-25T07:16:00.648Z,99728.16
2017-08-25T07:18:27.119Z,99724.05
2017-08-25T07:20:53.568Z,99723.46
2017-08-25T07:23:20.309Z,99724.01
2017-08-25T07:25:46.846Z,99726.93
2017-08-25T07:28:13.282Z,99729.77
2017-08-25T07:30:40.073Z,99723.62
2017-08-25T07:33:06.560Z,99724.35
2017-08-25T07:35:33.097Z,99727.19
2017-08-25T07:38:00.560Z,99725.69
2017-08-25T07:40:27.044Z,99718.05
2017-08-25T07:42:53.506Z,99718.52
2017-08-25T07:45:20.171Z,99707.27
2017-08-25T07:47:46.704Z,99729.30
2017-08-25T07:50:13.088Z,99726.08
2017-08-25T07:52:39.677Z,99726.42
2017-08-25T07:55:06.215Z,99721.67
2017-08-25T07:57:32.751Z,99718.34
2017-08-25T07:59:59.595Z,99722.85
2017-08-25T08:02:26.112Z,99690.21
2017-08-25T08:04:52.670Z,99708.52
2017-08-25T08:07:19.260Z,99708.04
2017-08-25T08:09:45.660Z,99705.95
2017-08-25T08:12:12.077Z,99706.84
2017-08-25T08:14:38.818Z,99698.22
2017-08-25T08:17:05.356Z,99695.47
2017-08-25T08:19:31.894Z,99692.06
2017-08-25T08:21:58.713Z,99685.19
2017-08-25T08:24:25.172Z,99689.69
2017-08-25T08:26:51.608Z,99695.52
2017-08-25T08:29:18.084Z,99686.57
2017-08-25T08:31:44.580Z,99682.84
2017-08-25T08:34:11.116Z,99653.71
2017-08-25T08:36:37.662Z,99686.89
2017-08-25T08:39:04.192Z,99673.53
2017-08-25T08:41:30.624Z,99685.14
2017-08-25T08:43:57.267Z,99677.67
2017-08-25T08:46:23.760Z,99683.92
2017-08-25T08:48:50.189Z,99684.70
2017-08-25T08:51:16.881Z,99686.75
2017-08-25T08:53:43.310Z,99687.47
2017-08-25T08:56:09.851Z,99684.06
2017-08-25T08:58:36.595Z,99691.77
2017-08-25T09:01:03.129Z,99690.52
2017-08-25T09:03:29.687Z,99692.44
2017-08-25T09:05:56.204Z,99690.27
2017-08-25T09:08:22.741Z,99689.37
2017-08-25T09:10:49.586Z,99677.73
2017-08-25T09:13:16.225Z,99683.81
2017-08-25T09:15:42.712Z,99687.47
2017-08-25T09:18:09.196Z,99686.90
2017-08-25T09:20:35.939Z,99675.81
2017-08-25T09:23:02.374Z,99660.70
2017-08-25T09:25:28.838Z,99672.06
2017-08-25T09:27:55.339Z,99666.69
2017-08-25T09:30:22.282Z,99668.95
2017-08-25T09:32:48.727Z,99669.97
2017-08-25T09:35:15.271Z,99666.88
2017-08-25T09:37:42.113Z,99665.27
2017-08-25T09:40:08.548Z,99659.03
2017-08-25T09:42:34.932Z,99667.19
2017-08-25T09:45:01.799Z,99664.34
2017-08-25T09:47:28.256Z,99662.36
2017-08-25T09:49:55.412Z,99658.13
2017-08-25T09:52:21.864Z,99659.74
2017-08-25T09:54:48.364Z,99656.80
2017-08-25T09:57:14.936Z,99663.41
2017-08-25T09:59:42.277Z,99657.61
2017-08-25T10:02:08.845Z,99659.89
2017-08-25T10:04:35.457Z,99661.39
2017-08-25T10:07:01.993Z,99665.25
2017-08-25T10:09:28.530Z,99664.64
2017-08-25T10:11:55.271Z,99659.92
2017-08-25T10:14:21.705Z,99656.76
2017-08-25T10:16:48.140Z,99652.44
2017-08-25T10:19:15.143Z,99650.37
2017-08-25T10:21:41.723Z,99644.44
2017-08-25T10:24:08.368Z,99649.22
2017-08-25T10:26:34.966Z,99638.16
2017-08-25T10:29:01.646Z,99646.81
2017-08-25T10:31:28.296Z,99644.40
2017-08-25T10:33:56.088Z,99640.54
2017-08-25T10:36:22.919Z,99639.16
2017-08-25T10:38:49.332Z,99637.88
2017-08-25T10:41:16.073Z,99641.12
2017-08-25T10:43:42.611Z,99646.63
2017-08-25T10:46:09.255Z,99643.02
2017-08-25T10:48:36.381Z,99636.27
2017-08-25T10:51:03.588Z,99633.68
2017-08-25T10:53:31.351Z,99637.09
2017-08-25T10:55:58.894Z,99635.69
2017-08-25T10:58:26.831Z,99633.13
2017-08-25T11:00:53.297Z,99627.39
2017-08-25T11:03:20.134Z,99623.95
2017-08-25T11:05:46.671Z,99634.13
2017-08-25T11:08:13.620Z,99634.81
2017-08-25T11:10:40.464Z,99627.67
2017-08-25T11:13:07.202Z,99627.16
2017-08-25T11:15:33.636Z,99622.04
2017-08-25T11:18:00.475Z,99628.58
2017-08-25T11:20:26.914Z,99626.06
2017-08-25T11:22:53.459Z,99624.85
2017-08-25T11:25:20.404Z,99620.74
2017-08-25T11:27:46.941Z,99618.65
2017-08-25T11:30:13.496Z,99610.85
2017-08-25T11:32:40.371Z,99603.59
2017-08-25T11:35:06.960Z,99582.77
2017-08-25T11:37:33.503Z,99585.78
2017-08-25T11:40:00.496Z,99592.39
2017-08-25T11:42:26.932Z,99598.10
2017-08-25T11:44:53.518Z,99593.98
2017-08-25T11:47:20.157Z,99591.44
2017-08-25T11:49:47.564Z,99592.22
2017-08-25T11:52:14.004Z,99590.95
2017-08-25T11:54:40.597Z,99582.93
2017-08-25T11:57:07.126Z,99578.83
2017-08-25T11:59:33.560Z,99577.66
2017-08-25T12:02:00.406Z,99588.75
2017-08-25T12:04:26.840Z,99584.52
2017-08-25T12:06:53.279Z,99579.63
2017-08-25T12:09:19.728Z,99572.14
2017-08-25T12:11:46.144Z,99565.84
2017-08-25T12:14:12.581Z,99548.69
2017-08-25T12:16:39.629Z,99563.44
2017-08-25T12:19:06.065Z,99559.98
2017-08-25T12:21:32.600Z,99564.23
2017-08-25T12:23:59.240Z,99566.92
2017-08-25T12:26:26.088Z,99565.38
2017-08-25T12:28:52.521Z,99552.15
2017-08-25T12:31:19.149Z,99562.34
2017-08-25T12:33:45.697Z,99558.52
2017-08-25T12:36:12.184Z,99549.41
2017-08-25T12:38:39.029Z,99546.46
2017-08-25T12:41:05.514Z,99545.25
2017-08-25T12:43:31.952Z,99544.37
2017-08-25T12:45:59.098Z,99551.67
2017-08-25T12:48:25.535Z,99544.20
2017-08-25T12:50:51.971Z,99543.06
2017-08-25T12:53:18.817Z,99546.59
2017-08-25T12:55:45.353Z,99546.85
2017-08-25T12:58:11.786Z,99547.61
2017-08-25T13:00:38.631Z,99545.41
2017-08-25T13:03:05.190Z,99542.15
2017-08-25T13:05:32.246Z,99549.93
2017-08-25T13:07:59.144Z,99552.33
2017-08-25T13:10:25.587Z,99536.19
2017-08-25T13:12:52.057Z,99544.58
2017-08-25T13:15:18.571Z,99544.16
2017-08-25T13:17:45.927Z,99551.65
2017-08-25T13:20:12.363Z,99542.19
2017-08-25T13:22:38.797Z,99528.67
2017-08-25T13:25:05.549Z,99540.80
2017-08-25T13:27:31.974Z,99528.77
2017-08-25T13:29:59.126Z,99531.55
2017-08-25T13:32:25.513Z,99531.75
2017-08-25T13:34:51.913Z,99534.61
2017-08-25T13:37:18.530Z,99527.92
2017-08-25T13:39:44.968Z,99530.13
2017-08-25T13:42:11.505Z,99530.02
2017-08-25T13:44:38.050Z,99527.40
2017-08-25T13:47:04.939Z,99525.44
2017-08-25T13:49:31.443Z,99522.65
2017-08-25T13:51:57.962Z,99521.75
2017-08-25T13:54:24.504Z,99506.83
2017-08-25T13:56:50.987Z,99501.85
2017-08-25T13:59:17.414Z,99511.49
2017-08-25T14:01:43.957Z,99502.58
2017-08-25T14:04:10.462Z,99509.61
2017-08-25T14:06:36.934Z,99505.02
2017-08-25T14:09:03.413Z,99508.39
2017-08-25T14:11:29.951Z,99500.93
2017-08-25T14:13:57.161Z,99498.66
2017-08-25T14:16:23.741Z,99499.08
2017-08-25T14:18:50.177Z,99492.72
2017-08-25T14:21:16.612Z,99496.54
2017-08-25T14:23:43.559Z,99483.47
2017-08-25T14:26:10.047Z,99490.84
2017-08-25T14:28:36.530Z,99491.13
2017-08-25T14:31:03.197Z,99490.09
2017-08-25T14:33:29.705Z,99489.77
2017-08-25T14:35:56.168Z,99486.04
2017-08-25T14:38:23.088Z,99485.60
2017-08-25T14:40:49.577Z,99486.44
2017-08-25T14:43:16.775Z,99483.30
2017-08-25T14:45:43.622Z,99482.59
2017-08-25T14:48:10.142Z,99478.22
2017-08-25T14:50:36.695Z,99477.08
2017-08-25T14:53:03.846Z,99484.11
2017-08-25T14:55:30.385Z,99478.31
2017-08-25T14:57:56.824Z,99480.91
2017-08-25T15:00:23.257Z,99470.25
2017-08-25T15:02:50.075Z,99470.44
2017-08-25T15:05:16.587Z,99466.65
2017-08-25T15:07:43.029Z,99464.90
2017-08-25T15:10:10.139Z,99460.59
2017-08-25T15:12:36.657Z,99463.36
2017-08-25T15:15:03.197Z,99466.16
2017-08-25T15:17:31.493Z,99454.68
2017-08-25T15:19:58.931Z,99452.50
2017-08-25T15:22:28.870Z,99448.72
2017-08-25T15:24:58.832Z,99446.19
2017-08-25T15:27:30.561Z,99453.89
2017-08-25T15:30:07.588Z,99455.08
2017-08-25T15:35:18.901Z,99449.75
2017-08-25T15:37:45.552Z,99449.33
2017-08-25T15:40:11.962Z,99451.52
2017-08-25T15:42:38.624Z,99435.72
2017-08-25T15:45:06.089Z,99451.31
2017-08-25T15:47:32.621Z,99447.17
2017-08-25T15:49:59.568Z,99448.37
2017-08-25T15:52:26.818Z,99450.53
2017-08-25T15:54:53.358Z,99442.84
2017-08-25T15:57:19.895Z,99440.21
2017-08-25T15:59:46.330Z,99441.02
2017-08-25T16:02:12.765Z,99440.02
2017-08-25T16:04:39.507Z,99437.81
2017-08-25T16:07:05.882Z,99441.78
2017-08-25T16:09:32.332Z,99443.55
2017-08-25T16:11:58.801Z,99436.64
2017-08-25T16:14:25.225Z,99437.22
2017-08-25T16:16:51.635Z,99436.03
2017-08-25T16:19:18.103Z,99443.09
2017-08-25T16:21:44.859Z,99438.70
2017-08-25T16:24:11.294Z,99437.91
2017-08-25T16:26:37.730Z,99445.38
2017-08-25T16:29:04.115Z,99443.97
2017-08-25T16:31:30.599Z,99434.05
2017-08-25T16:33:57.443Z,99446.08
2017-08-25T16:36:24.002Z,99444.04
2017-08-25T16:38:50.437Z,99440.03
2017-08-25T16:41:16.940Z,99437.80
2017-08-25T16:43:43.396Z,99437.16
2017-08-25T16:46:09.925Z,99437.67
2017-08-25T16:48:36.344Z,99446.02
2017-08-25T16:51:02.960Z,99440.40
2017-08-25T16:53:29.434Z,99445.66
2017-08-25T16:55:55.937Z,99443.19
2017-08-25T16:58:22.390Z,99445.67
2017-08-25T17:00:48.833Z,99448.69
2017-08-25T17:03:15.483Z,99446.38
2017-08-25T17:05:42.019Z,99443.73
2017-08-25T17:08:08.415Z,99443.77
2017-08-25T17:10:34.786Z,99451.06
2017-08-25T17:13:01.176Z,99448.94
2017-08-25T17:15:27.643Z,99431.77
2017-08-25T17:17:54.093Z,99455.39
2017-08-25T17:20:20.478Z,99453.24
2017-08-25T17:22:47.325Z,99451.54
2017-08-25T17:25:13.805Z,99457.69
2017-08-25T17:27:40.195Z,99456.23
2017-08-25T17:30:06.675Z,99458.24
2017-08-25T17:32:33.417Z,99463.00
2017-08-25T17:34:59.913Z,99464.39
2017-08-25T17:37:26.389Z,99472.95
2017-08-25T17:39:52.822Z,99466.69
2017-08-25T17:42:19.259Z,99466.73
2017-08-25T17:44:45.692Z,99443.25
2017-08-25T17:47:12.129Z,99467.19
2017-08-25T17:49:38.563Z,99475.40
2017-08-25T17:52:05.155Z,99473.72
2017-08-25T17:54:31.629Z,99483.17
2017-08-25T17:56:58.073Z,99479.77
2017-08-25T17:59:24.815Z,99483.14
2017-08-25T18:01:51.200Z,99481.47
2017-08-25T18:04:18.095Z,99486.66
2017-08-25T18:06:44.529Z,99488.45
2017-08-25T18:09:10.966Z,99491.96
2017-08-25T18:11:37.400Z,99491.20
2017-08-25T18:14:03.834Z,99500.13
2017-08-25T18:16:30.372Z,99501.02
2017-08-25T18:18:56.806Z,99495.07
2017-08-25T18:21:24.061Z,99498.69
2017-08-25T18:23:50.495Z,99501.44
2017-08-25T18:26:16.993Z,99499.77
2017-08-25T18:28:43.365Z,99505.22
2017-08-25T18:31:09.803Z,99504.63
2017-08-25T18:33:36.639Z,99502.74
2017-08-25T18:36:03.183Z,99505.94
2017-08-25T18:38:29.617Z,99504.34
2017-08-25T18:40:56.054Z,99508.30
2017-08-25T18:43:22.541Z,99514.94
2017-08-25T18:45:48.982Z,99515.23
2017-08-25T18:48:15.446Z,99523.23
2017-08-25T18:50:41.888Z,99527.45
2017-08-25T18:53:08.331Z,99535.44
2017-08-25T18:55:34.868Z,99536.66
2017-08-25T18:58:01.255Z,99543.35
2017-08-25T19:00:27.605Z,99540.39
2017-08-25T19:02:54.051Z,99542.67
2017-08-25T19:05:20.605Z,99515.88
2017-08-25T19:07:46.992Z,99546.02
2017-08-25T19:10:13.474Z,99544.77
2017-08-25T19:12:39.871Z,99548.19
2017-08-25T19:15:06.345Z,99545.25
2017-08-25T19:17:32.779Z,99553.05
2017-08-25T19:19:59.215Z,99555.61
2017-08-25T19:22:25.649Z,99561.33
2017-08-25T19:24:52.160Z,99560.52
2017-08-25T19:27:18.622Z,99565.05
2017-08-25T19:29:45.000Z,99529.48
2017-08-25T19:32:11.492Z,99561.28
2017-08-25T19:34:38.647Z,99567.37
2017-08-25T19:37:05.034Z,99557.99
2017-08-25T19:39:31.616Z,99558.77
2017-08-25T19:41:58.051Z,99561.83
2017-08-25T19:44:24.505Z,99563.66
2017-08-25T19:46:50.926Z,99566.09
2017-08-25T19:49:17.358Z,99559.92
2017-08-25T19:51:44.509Z,99563.16
2017-08-25T19:54:11.001Z,99561.70
2017-08-25T19:56:37.437Z,99562.83
2017-08-25T19:59:03.881Z,99568.48
2017-08-25T20:01:30.349Z,99567.73
2017-08-25T20:03:56.786Z,99571.77
2017-08-25T20:06:23.321Z,99568.14
2017-08-25T20:08:49.757Z,99570.09
2017-08-25T20:11:16.190Z,99567.19
2017-08-25T20:13:42.580Z,99568.09
2017-08-25T20:16:09.016Z,99565.84
2017-08-25T20:18:35.495Z,99567.88
2017-08-25T20:21:01.879Z,99565.47
2017-08-25T20:23:28.774Z,99564.84
2017-08-25T20:25:55.312Z,99566.10
2017-08-25T20:28:21.747Z,99564.36
2017-08-25T20:30:48.184Z,99568.78
2017-08-25T20:33:14.617Z,99564.00
2017-08-25T20:35:41.107Z,99561.01
2017-08-25T20:38:07.486Z,99572.77
2017-08-25T20:40:33.876Z,99563.25
2017-08-25T20:43:00.307Z,99571.22
2017-08-25T20:45:27.612Z,99565.25
2017-08-25T20:47:54.046Z,99564.89
2017-08-25T20:50:20.479Z,99572.75
2017-08-25T20:52:46.918Z,99568.30
2017-08-25T20:55:13.403Z,99565.11
2017-08-25T20:57:39.884Z,99566.56
2017-08-25T21:00:06.328Z,99564.47
2017-08-25T21:02:32.758Z,99558.03
2017-08-25T21:04:59.264Z,99560.70
2017-08-25T21:07:25.728Z,99555.94
2017-08-25T21:09:52.116Z,99544.94
2017-08-25T21:12:18.598Z,99562.11
2017-08-25T21:14:45.135Z,99556.44
2017-08-25T21:17:11.572Z,99564.30
2017-08-25T21:19:38.110Z,99562.03
2017-08-25T21:22:04.544Z,99564.20
2017-08-25T21:24:31.800Z,99566.94
2017-08-25T21:26:58.334Z,99569.28
2017-08-25T21:29:24.815Z,99568.27
2017-08-25T21:31:51.305Z,99562.03
2017-08-25T21:34:17.744Z,99557.13
2017-08-25T21:36:44.181Z,99566.37
2017-08-25T21:39:10.613Z,99574.00
2017-08-25T21:41:37.004Z,99571.39
2017-08-25T21:44:03.481Z,99577.11
2017-08-25T21:46:30.020Z,99572.44
2017-08-25T21:48:56.459Z,99576.52
2017-08-25T21:51:22.891Z,99575.31
2017-08-25T21:53:49.324Z,99573.63
2017-08-25T21:56:15.862Z,99576.09
2017-08-25T21:58:42.295Z,99574.50
2017-08-25T22:01:08.730Z,99574.20
2017-08-25T22:03:35.165Z,99572.48
2017-08-25T22:06:01.701Z,99565.92
2017-08-25T22:08:28.137Z,99567.67
2017-08-25T22:10:54.540Z,99574.01
2017-08-25T22:13:20.912Z,99577.78
2017-08-25T22:15:47.446Z,99574.12
2017-08-25T22:18:13.844Z,99574.92
2017-08-25T22:20:40.310Z,99576.94
2017-08-25T22:23:06.746Z,99576.13
2017-08-25T22:25:33.286Z,99572.58
2017-08-25T22:27:59.647Z,99573.81
2017-08-25T22:30:26.130Z,99577.26
2017-08-25T22:32:53.512Z,99580.86
2017-08-25T22:35:20.048Z,99581.88
2017-08-25T22:37:46.481Z,99583.81
2017-08-25T22:40:12.940Z,99581.41
2017-08-25T22:42:39.352Z,99584.79
2017-08-25T22:45:05.889Z,99574.04
2017-08-25T22:47:32.275Z,99573.41
2017-08-25T22:49:59.580Z,99555.34
2017-08-25T22:52:26.013Z,99571.18
2017-08-25T22:54:52.522Z,99568.53
2017-08-25T22:57:19.600Z,99569.33
2017-08-25T22:59:46.096Z,99571.23
2017-08-25T23:02:12.469Z,99550.02
2017-08-25T23:04:38.962Z,99533.35
2017-08-25T23:07:05.444Z,99559.94
2017-08-25T23:09:31.876Z,99563.52
2017-08-25T23:11:59.132Z,99553.56
2017-08-25T23:14:25.565Z,99561.48
2017-08-25T23:16:51.955Z,99551.36
2017-08-25T23:19:18.541Z,99556.93
2017-08-25T23:21:44.997Z,99543.52
2017-08-25T23:24:11.407Z,99545.27
2017-08-25T23:26:37.843Z,99541.83
2017-08-25T23:29:04.380Z,99544.16
2017-08-25T23:31:30.815Z,99550.63
2017-08-25T23:33:57.251Z,99546.16
2017-08-25T23:36:23.788Z,99546.70
2017-08-25T23:38:50.223Z,99538.30
2017-08-25T23:41:16.618Z,99537.88
2017-08-25T23:43:43.054Z,99542.73
2017-08-25T23:46:09.570Z,99539.64
2017-08-25T23:48:36.063Z,99541.02
2017-08-25T23:51:03.213Z,99539.78
2017-08-25T23:53:29.652Z,99538.97
2017-08-25T23:55:56.188Z,99535.08
2017-08-25T23:58:22.623Z,99543.95
